sensor_id;sensor_type;location;lat;lon;timestamp;temperature;humidity
20998;DHT22;10657;51.276;6.390;2023-05-25T00:00:41;12.80;99.90
20998;DHT22;10657;51.276;6.390;2023-05-25T00:03:26;12.80;99.90
20998;DHT22;10657;51.276;6.390;2023-05-25T00:05:56;12.80;99.90
20998;DHT22;10657;51.276;6.390;2023-05-25T00:08:24;12.70;99.90
20998;DHT22;10657;51.276;6.390;2023-05-25T00:10:50;12.70;99.90
20998;DHT22;10657;51.276;6.390;2023-05-25T00:13:17;12.70;99.90
20998;DHT22;10657;51.276;6.390;2023-05-25T00:15:44;12.70;99.90
20998;DHT22;10657;51.276;6.390;2023-05-25T00:18:11;12.60;99.90
20998;DHT22;10657;51.276;6.390;2023-05-25T00:20:38;12.60;99.90
20998;DHT22;10657;51.276;6.390;2023-05-25T00:23:05;12.60;99.90
20998;DHT22;10657;51.276;6.390;2023-05-25T00:25:31;12.60;99.90
20998;DHT22;10657;51.276;6.390;2023-05-25T00:27:58;12.40;99.90
20998;DHT22;10657;51.276;6.390;2023-05-25T00:30:25;12.40;99.90
20998;DHT22;10657;51.276;6.390;2023-05-25T00:32:51;12.50;99.90
20998;DHT22;10657;51.276;6.390;2023-05-25T00:35:20;12.40;99.90
20998;DHT22;10657;51.276;6.390;2023-05-25T00:37:47;12.40;99.90
20998;DHT22;10657;51.276;6.390;2023-05-25T00:40:15;12.40;99.90
20998;DHT22;10657;51.276;6.390;2023-05-25T00:42:43;12.20;99.90
20998;DHT22;10657;51.276;6.390;2023-05-25T00:45:10;12.30;99.90
20998;DHT22;10657;51.276;6.390;2023-05-25T00:47:38;12.20;99.90
20998;DHT22;10657;51.276;6.390;2023-05-25T00:50:08;12.20;99.90
20998;DHT22;10657;51.276;6.390;2023-05-25T00:52:34;12.10;99.90
20998;DHT22;10657;51.276;6.390;2023-05-25T00:55:02;12.00;99.90
20998;DHT22;10657;51.276;6.390;2023-05-25T00:57:30;12.10;99.90
20998;DHT22;10657;51.276;6.390;2023-05-25T01:00:00;12.00;99.90
20998;DHT22;10657;51.276;6.390;2023-05-25T01:02:27;12.10;99.90
20998;DHT22;10657;51.276;6.390;2023-05-25T01:04:56;12.00;99.90
20998;DHT22;10657;51.276;6.390;2023-05-25T01:07:25;11.90;99.90
20998;DHT22;10657;51.276;6.390;2023-05-25T01:10:05;12.00;99.90
20998;DHT22;10657;51.276;6.390;2023-05-25T01:12:39;11.90;99.90
20998;DHT22;10657;51.276;6.390;2023-05-25T01:15:08;11.80;99.90
20998;DHT22;10657;51.276;6.390;2023-05-25T01:17:35;11.90;99.90
20998;DHT22;10657;51.276;6.390;2023-05-25T01:20:04;11.80;99.90
20998;DHT22;10657;51.276;6.390;2023-05-25T01:22:49;11.70;99.90
20998;DHT22;10657;51.276;6.390;2023-05-25T01:25:42;11.60;99.90
20998;DHT22;10657;51.276;6.390;2023-05-25T01:28:16;11.60;99.90
20998;DHT22;10657;51.276;6.390;2023-05-25T01:30:46;11.50;99.90
20998;DHT22;10657;51.276;6.390;2023-05-25T01:33:15;11.60;99.90
20998;DHT22;10657;51.276;6.390;2023-05-25T01:36:02;11.50;99.90
20998;DHT22;10657;51.276;6.390;2023-05-25T01:38:29;11.30;99.90
20998;DHT22;10657;51.276;6.390;2023-05-25T01:40:56;11.40;99.90
20998;DHT22;10657;51.276;6.390;2023-05-25T01:43:23;11.40;99.90
20998;DHT22;10657;51.276;6.390;2023-05-25T01:45:54;11.40;99.90
20998;DHT22;10657;51.276;6.390;2023-05-25T01:48:42;11.50;99.90
20998;DHT22;10657;51.276;6.390;2023-05-25T01:51:18;11.40;99.90
20998;DHT22;10657;51.276;6.390;2023-05-25T01:53:55;11.30;99.90
20998;DHT22;10657;51.276;6.390;2023-05-25T01:56:26;11.30;99.90
20998;DHT22;10657;51.276;6.390;2023-05-25T01:58:55;11.30;99.90
20998;DHT22;10657;51.276;6.390;2023-05-25T02:01:24;11.30;99.90
20998;DHT22;10657;51.276;6.390;2023-05-25T02:03:52;11.30;99.90
20998;DHT22;10657;51.276;6.390;2023-05-25T02:06:19;11.40;99.90
20998;DHT22;10657;51.276;6.390;2023-05-25T02:08:46;11.10;99.90
20998;DHT22;10657;51.276;6.390;2023-05-25T02:11:13;11.10;99.90
20998;DHT22;10657;51.276;6.390;2023-05-25T02:13:40;11.20;99.90
20998;DHT22;10657;51.276;6.390;2023-05-25T02:16:07;11.00;99.90
20998;DHT22;10657;51.276;6.390;2023-05-25T02:18:34;10.90;99.90
20998;DHT22;10657;51.276;6.390;2023-05-25T02:21:01;10.90;99.90
20998;DHT22;10657;51.276;6.390;2023-05-25T02:23:28;10.80;99.90
20998;DHT22;10657;51.276;6.390;2023-05-25T02:25:55;10.80;99.90
20998;DHT22;10657;51.276;6.390;2023-05-25T02:28:21;10.80;99.90
20998;DHT22;10657;51.276;6.390;2023-05-25T02:30:48;10.80;99.90
20998;DHT22;10657;51.276;6.390;2023-05-25T02:33:15;10.80;99.90
20998;DHT22;10657;51.276;6.390;2023-05-25T02:35:41;10.80;99.90
20998;DHT22;10657;51.276;6.390;2023-05-25T02:38:09;10.90;99.90
20998;DHT22;10657;51.276;6.390;2023-05-25T02:40:35;10.80;99.90
20998;DHT22;10657;51.276;6.390;2023-05-25T02:43:02;10.80;99.90
20998;DHT22;10657;51.276;6.390;2023-05-25T02:45:28;10.80;99.90
20998;DHT22;10657;51.276;6.390;2023-05-25T02:47:55;10.90;99.90
20998;DHT22;10657;51.276;6.390;2023-05-25T02:50:22;10.80;99.90
20998;DHT22;10657;51.276;6.390;2023-05-25T02:52:49;10.80;99.90
20998;DHT22;10657;51.276;6.390;2023-05-25T02:55:15;10.80;99.90
20998;DHT22;10657;51.276;6.390;2023-05-25T02:57:44;10.80;99.90
20998;DHT22;10657;51.276;6.390;2023-05-25T03:00:11;10.90;99.90
20998;DHT22;10657;51.276;6.390;2023-05-25T03:02:38;10.90;99.90
20998;DHT22;10657;51.276;6.390;2023-05-25T03:05:05;10.80;99.90
20998;DHT22;10657;51.276;6.390;2023-05-25T03:07:33;10.80;99.90
20998;DHT22;10657;51.276;6.390;2023-05-25T03:09:59;10.80;99.90
20998;DHT22;10657;51.276;6.390;2023-05-25T03:12:26;10.90;99.90
20998;DHT22;10657;51.276;6.390;2023-05-25T03:14:52;10.90;99.90
20998;DHT22;10657;51.276;6.390;2023-05-25T03:17:19;10.80;99.90
20998;DHT22;10657;51.276;6.390;2023-05-25T03:19:46;10.80;99.90
20998;DHT22;10657;51.276;6.390;2023-05-25T03:22:12;10.80;99.90
20998;DHT22;10657;51.276;6.390;2023-05-25T03:24:39;10.90;99.90
20998;DHT22;10657;51.276;6.390;2023-05-25T03:27:07;10.80;99.90
20998;DHT22;10657;51.276;6.390;2023-05-25T03:29:34;10.80;99.90
20998;DHT22;10657;51.276;6.390;2023-05-25T03:32:01;10.60;99.90
20998;DHT22;10657;51.276;6.390;2023-05-25T03:34:28;10.50;99.90
20998;DHT22;10657;51.276;6.390;2023-05-25T03:36:55;10.50;99.90
20998;DHT22;10657;51.276;6.390;2023-05-25T03:39:22;10.40;99.90
20998;DHT22;10657;51.276;6.390;2023-05-25T03:41:48;10.50;99.90
20998;DHT22;10657;51.276;6.390;2023-05-25T03:44:16;10.50;99.90
20998;DHT22;10657;51.276;6.390;2023-05-25T03:46:43;10.50;99.90
20998;DHT22;10657;51.276;6.390;2023-05-25T03:49:09;10.40;99.90
20998;DHT22;10657;51.276;6.390;2023-05-25T03:51:42;10.30;99.90
20998;DHT22;10657;51.276;6.390;2023-05-25T03:54:10;10.30;99.90
20998;DHT22;10657;51.276;6.390;2023-05-25T03:56:37;10.30;99.90
20998;DHT22;10657;51.276;6.390;2023-05-25T03:59:03;10.30;99.90
20998;DHT22;10657;51.276;6.390;2023-05-25T04:01:30;10.40;99.90
20998;DHT22;10657;51.276;6.390;2023-05-25T04:03:57;10.40;99.90
20998;DHT22;10657;51.276;6.390;2023-05-25T04:06:24;10.30;99.90
20998;DHT22;10657;51.276;6.390;2023-05-25T04:08:51;10.30;99.90
20998;DHT22;10657;51.276;6.390;2023-05-25T04:11:18;10.30;99.90
20998;DHT22;10657;51.276;6.390;2023-05-25T04:13:45;10.40;99.90
20998;DHT22;10657;51.276;6.390;2023-05-25T04:16:12;10.30;99.90
20998;DHT22;10657;51.276;6.390;2023-05-25T04:18:39;10.30;99.90
20998;DHT22;10657;51.276;6.390;2023-05-25T04:21:05;10.30;99.90
20998;DHT22;10657;51.276;6.390;2023-05-25T04:23:32;10.30;99.90
20998;DHT22;10657;51.276;6.390;2023-05-25T04:26:02;10.40;99.90
20998;DHT22;10657;51.276;6.390;2023-05-25T04:28:29;10.40;99.90
20998;DHT22;10657;51.276;6.390;2023-05-25T04:30:56;10.40;99.90
20998;DHT22;10657;51.276;6.390;2023-05-25T04:33:23;10.50;99.90
20998;DHT22;10657;51.276;6.390;2023-05-25T04:35:50;10.50;99.90
20998;DHT22;10657;51.276;6.390;2023-05-25T04:38:16;10.50;99.90
20998;DHT22;10657;51.276;6.390;2023-05-25T04:40:43;10.60;99.90
20998;DHT22;10657;51.276;6.390;2023-05-25T04:43:11;10.70;99.90
20998;DHT22;10657;51.276;6.390;2023-05-25T04:45:39;10.70;99.90
20998;DHT22;10657;51.276;6.390;2023-05-25T04:48:05;10.60;99.90
20998;DHT22;10657;51.276;6.390;2023-05-25T04:50:32;10.50;99.90
20998;DHT22;10657;51.276;6.390;2023-05-25T04:52:59;10.40;99.90
20998;DHT22;10657;51.276;6.390;2023-05-25T04:55:26;10.50;99.90
20998;DHT22;10657;51.276;6.390;2023-05-25T04:57:53;10.50;99.90
20998;DHT22;10657;51.276;6.390;2023-05-25T05:00:20;10.50;99.90
20998;DHT22;10657;51.276;6.390;2023-05-25T05:02:47;10.40;99.90
20998;DHT22;10657;51.276;6.390;2023-05-25T05:05:15;10.40;99.90
20998;DHT22;10657;51.276;6.390;2023-05-25T05:07:42;10.50;99.90
20998;DHT22;10657;51.276;6.390;2023-05-25T05:10:09;10.50;99.90
20998;DHT22;10657;51.276;6.390;2023-05-25T05:12:35;10.50;99.90
20998;DHT22;10657;51.276;6.390;2023-05-25T05:15:02;10.60;99.90
20998;DHT22;10657;51.276;6.390;2023-05-25T05:17:29;10.70;99.90
20998;DHT22;10657;51.276;6.390;2023-05-25T05:19:56;10.90;99.90
20998;DHT22;10657;51.276;6.390;2023-05-25T05:22:23;10.80;99.90
20998;DHT22;10657;51.276;6.390;2023-05-25T05:24:50;10.90;99.90
20998;DHT22;10657;51.276;6.390;2023-05-25T05:27:17;11.00;99.90
20998;DHT22;10657;51.276;6.390;2023-05-25T05:29:44;11.00;99.90
20998;DHT22;10657;51.276;6.390;2023-05-25T05:32:11;11.10;99.90
20998;DHT22;10657;51.276;6.390;2023-05-25T05:34:38;10.90;99.90
20998;DHT22;10657;51.276;6.390;2023-05-25T05:37:04;10.90;99.90
20998;DHT22;10657;51.276;6.390;2023-05-25T05:39:31;10.90;99.90
20998;DHT22;10657;51.276;6.390;2023-05-25T05:41:58;11.10;99.90
20998;DHT22;10657;51.276;6.390;2023-05-25T05:44:25;11.30;99.90
20998;DHT22;10657;51.276;6.390;2023-05-25T05:46:55;11.30;99.90
20998;DHT22;10657;51.276;6.390;2023-05-25T05:49:27;11.40;99.90
20998;DHT22;10657;51.276;6.390;2023-05-25T05:51:54;11.40;99.90
20998;DHT22;10657;51.276;6.390;2023-05-25T05:54:21;11.60;99.90
20998;DHT22;10657;51.276;6.390;2023-05-25T05:56:49;11.80;99.90
20998;DHT22;10657;51.276;6.390;2023-05-25T05:59:16;11.80;99.90
20998;DHT22;10657;51.276;6.390;2023-05-25T06:01:43;11.90;99.90
20998;DHT22;10657;51.276;6.390;2023-05-25T06:04:10;11.90;99.90
20998;DHT22;10657;51.276;6.390;2023-05-25T06:06:36;11.90;99.90
20998;DHT22;10657;51.276;6.390;2023-05-25T06:09:05;11.70;99.90
20998;DHT22;10657;51.276;6.390;2023-05-25T06:11:33;11.70;99.90
20998;DHT22;10657;51.276;6.390;2023-05-25T06:14:03;11.90;99.90
20998;DHT22;10657;51.276;6.390;2023-05-25T06:16:30;12.00;99.90
20998;DHT22;10657;51.276;6.390;2023-05-25T06:18:57;12.30;99.90
20998;DHT22;10657;51.276;6.390;2023-05-25T06:21:23;12.30;99.90
20998;DHT22;10657;51.276;6.390;2023-05-25T06:23:50;12.40;99.90
20998;DHT22;10657;51.276;6.390;2023-05-25T06:26:17;12.50;99.90
20998;DHT22;10657;51.276;6.390;2023-05-25T06:28:44;12.30;99.90
20998;DHT22;10657;51.276;6.390;2023-05-25T06:31:12;12.30;99.90
20998;DHT22;10657;51.276;6.390;2023-05-25T06:33:39;12.40;99.90
20998;DHT22;10657;51.276;6.390;2023-05-25T06:36:06;12.30;99.90
20998;DHT22;10657;51.276;6.390;2023-05-25T06:38:32;12.50;99.90
20998;DHT22;10657;51.276;6.390;2023-05-25T06:40:59;12.60;99.90
20998;DHT22;10657;51.276;6.390;2023-05-25T06:43:30;12.60;99.90
20998;DHT22;10657;51.276;6.390;2023-05-25T06:45:57;12.90;99.90
20998;DHT22;10657;51.276;6.390;2023-05-25T06:48:24;12.70;99.90
20998;DHT22;10657;51.276;6.390;2023-05-25T06:50:51;12.70;99.90
20998;DHT22;10657;51.276;6.390;2023-05-25T06:53:17;12.80;99.90
20998;DHT22;10657;51.276;6.390;2023-05-25T06:55:44;13.00;99.90
20998;DHT22;10657;51.276;6.390;2023-05-25T06:58:11;13.20;99.90
20998;DHT22;10657;51.276;6.390;2023-05-25T07:00:38;13.50;99.90
20998;DHT22;10657;51.276;6.390;2023-05-25T07:03:05;13.20;99.90
20998;DHT22;10657;51.276;6.390;2023-05-25T07:05:32;13.20;99.90
20998;DHT22;10657;51.276;6.390;2023-05-25T07:07:58;13.40;99.90
20998;DHT22;10657;51.276;6.390;2023-05-25T07:10:25;13.60;99.90
20998;DHT22;10657;51.276;6.390;2023-05-25T07:12:52;13.70;99.90
20998;DHT22;10657;51.276;6.390;2023-05-25T07:15:19;13.80;99.90
20998;DHT22;10657;51.276;6.390;2023-05-25T07:17:47;13.80;99.90
20998;DHT22;10657;51.276;6.390;2023-05-25T07:20:13;13.60;99.90
20998;DHT22;10657;51.276;6.390;2023-05-25T07:22:41;13.50;99.90
20998;DHT22;10657;51.276;6.390;2023-05-25T07:25:09;13.60;99.90
20998;DHT22;10657;51.276;6.390;2023-05-25T07:27:35;13.90;99.90
20998;DHT22;10657;51.276;6.390;2023-05-25T07:30:03;13.90;99.90
20998;DHT22;10657;51.276;6.390;2023-05-25T07:32:29;13.80;99.90
20998;DHT22;10657;51.276;6.390;2023-05-25T07:34:56;14.10;99.90
20998;DHT22;10657;51.276;6.390;2023-05-25T07:37:23;14.20;99.90
20998;DHT22;10657;51.276;6.390;2023-05-25T07:39:50;14.50;99.90
20998;DHT22;10657;51.276;6.390;2023-05-25T07:42:16;14.60;99.90
20998;DHT22;10657;51.276;6.390;2023-05-25T07:44:47;14.80;99.90
20998;DHT22;10657;51.276;6.390;2023-05-25T07:47:14;14.60;99.90
20998;DHT22;10657;51.276;6.390;2023-05-25T07:49:41;14.70;99.90
20998;DHT22;10657;51.276;6.390;2023-05-25T07:52:08;14.60;99.90
20998;DHT22;10657;51.276;6.390;2023-05-25T07:54:35;14.50;99.90
20998;DHT22;10657;51.276;6.390;2023-05-25T07:57:05;14.80;99.90
20998;DHT22;10657;51.276;6.390;2023-05-25T07:59:33;14.70;99.90
20998;DHT22;10657;51.276;6.390;2023-05-25T08:02:00;14.70;99.90
20998;DHT22;10657;51.276;6.390;2023-05-25T08:04:27;14.60;99.90
20998;DHT22;10657;51.276;6.390;2023-05-25T08:06:54;14.10;99.90
20998;DHT22;10657;51.276;6.390;2023-05-25T08:09:21;13.90;99.90
20998;DHT22;10657;51.276;6.390;2023-05-25T08:11:47;14.00;99.90
20998;DHT22;10657;51.276;6.390;2023-05-25T08:14:15;14.00;99.90
20998;DHT22;10657;51.276;6.390;2023-05-25T08:16:41;14.20;99.90
20998;DHT22;10657;51.276;6.390;2023-05-25T08:19:08;14.10;99.90
20998;DHT22;10657;51.276;6.390;2023-05-25T08:21:35;14.50;99.90
20998;DHT22;10657;51.276;6.390;2023-05-25T08:24:03;14.90;99.90
20998;DHT22;10657;51.276;6.390;2023-05-25T08:26:31;15.10;99.90
20998;DHT22;10657;51.276;6.390;2023-05-25T08:29:19;14.80;99.90
20998;DHT22;10657;51.276;6.390;2023-05-25T08:31:46;14.60;99.90
20998;DHT22;10657;51.276;6.390;2023-05-25T08:34:15;14.60;99.90
20998;DHT22;10657;51.276;6.390;2023-05-25T08:36:42;14.70;99.90
20998;DHT22;10657;51.276;6.390;2023-05-25T08:39:10;14.80;99.90
20998;DHT22;10657;51.276;6.390;2023-05-25T08:41:43;14.70;99.90
20998;DHT22;10657;51.276;6.390;2023-05-25T08:44:10;14.60;99.90
20998;DHT22;10657;51.276;6.390;2023-05-25T08:46:39;14.70;99.90
20998;DHT22;10657;51.276;6.390;2023-05-25T08:49:11;14.80;99.90
20998;DHT22;10657;51.276;6.390;2023-05-25T08:51:41;15.00;99.90
20998;DHT22;10657;51.276;6.390;2023-05-25T08:54:11;15.00;99.90
20998;DHT22;10657;51.276;6.390;2023-05-25T08:56:59;14.90;99.90
20998;DHT22;10657;51.276;6.390;2023-05-25T08:59:37;14.80;99.90
20998;DHT22;10657;51.276;6.390;2023-05-25T09:02:41;14.80;99.90
20998;DHT22;10657;51.276;6.390;2023-05-25T09:05:12;15.00;99.90
20998;DHT22;10657;51.276;6.390;2023-05-25T09:07:41;15.10;99.90
20998;DHT22;10657;51.276;6.390;2023-05-25T09:10:10;15.00;99.90
20998;DHT22;10657;51.276;6.390;2023-05-25T09:12:38;15.20;99.90
20998;DHT22;10657;51.276;6.390;2023-05-25T09:15:05;15.30;99.90
20998;DHT22;10657;51.276;6.390;2023-05-25T09:17:32;15.70;99.90
20998;DHT22;10657;51.276;6.390;2023-05-25T09:20:01;16.00;99.90
20998;DHT22;10657;51.276;6.390;2023-05-25T09:22:28;16.20;99.90
20998;DHT22;10657;51.276;6.390;2023-05-25T09:24:55;16.00;99.90
20998;DHT22;10657;51.276;6.390;2023-05-25T09:27:22;16.30;99.90
20998;DHT22;10657;51.276;6.390;2023-05-25T09:29:50;16.50;99.90
20998;DHT22;10657;51.276;6.390;2023-05-25T09:32:17;16.40;99.90
20998;DHT22;10657;51.276;6.390;2023-05-25T09:34:45;16.30;99.90
20998;DHT22;10657;51.276;6.390;2023-05-25T09:37:14;16.50;99.90
20998;DHT22;10657;51.276;6.390;2023-05-25T09:39:43;16.80;99.90
20998;DHT22;10657;51.276;6.390;2023-05-25T09:42:10;17.00;99.90
20998;DHT22;10657;51.276;6.390;2023-05-25T09:44:38;16.90;99.90
20998;DHT22;10657;51.276;6.390;2023-05-25T09:47:05;16.80;99.90
20998;DHT22;10657;51.276;6.390;2023-05-25T09:49:32;17.00;99.90
20998;DHT22;10657;51.276;6.390;2023-05-25T09:51:59;16.90;99.90
20998;DHT22;10657;51.276;6.390;2023-05-25T09:54:26;16.60;99.90
20998;DHT22;10657;51.276;6.390;2023-05-25T09:56:53;16.00;99.90
20998;DHT22;10657;51.276;6.390;2023-05-25T09:59:21;16.10;99.90
20998;DHT22;10657;51.276;6.390;2023-05-25T10:01:51;15.80;99.90
20998;DHT22;10657;51.276;6.390;2023-05-25T10:04:19;15.70;99.90
20998;DHT22;10657;51.276;6.390;2023-05-25T10:06:47;15.70;99.90
20998;DHT22;10657;51.276;6.390;2023-05-25T10:09:18;15.80;99.90
20998;DHT22;10657;51.276;6.390;2023-05-25T10:11:45;16.00;99.90
20998;DHT22;10657;51.276;6.390;2023-05-25T10:14:15;16.30;99.90
20998;DHT22;10657;51.276;6.390;2023-05-25T10:16:47;16.50;99.90
20998;DHT22;10657;51.276;6.390;2023-05-25T10:22:05;16.90;99.90
20998;DHT22;10657;51.276;6.390;2023-05-25T10:24:41;17.00;99.90
20998;DHT22;10657;51.276;6.390;2023-05-25T10:27:15;17.20;99.90
20998;DHT22;10657;51.276;6.390;2023-05-25T10:29:55;17.30;99.90
20998;DHT22;10657;51.276;6.390;2023-05-25T10:32:22;16.80;99.90
20998;DHT22;10657;51.276;6.390;2023-05-25T10:34:51;17.20;99.90
20998;DHT22;10657;51.276;6.390;2023-05-25T10:37:18;16.90;99.90
20998;DHT22;10657;51.276;6.390;2023-05-25T10:39:45;16.80;99.90
20998;DHT22;10657;51.276;6.390;2023-05-25T10:42:11;16.80;99.90
20998;DHT22;10657;51.276;6.390;2023-05-25T10:44:42;17.20;99.90
20998;DHT22;10657;51.276;6.390;2023-05-25T10:47:09;16.90;99.90
20998;DHT22;10657;51.276;6.390;2023-05-25T10:49:53;17.20;99.90
20998;DHT22;10657;51.276;6.390;2023-05-25T10:52:21;17.40;99.90
20998;DHT22;10657;51.276;6.390;2023-05-25T10:54:54;17.00;99.90
20998;DHT22;10657;51.276;6.390;2023-05-25T10:57:23;16.80;99.90
20998;DHT22;10657;51.276;6.390;2023-05-25T10:59:51;16.60;99.90
20998;DHT22;10657;51.276;6.390;2023-05-25T11:02:20;16.60;99.90
20998;DHT22;10657;51.276;6.390;2023-05-25T11:21:21;17.10;99.90
20998;DHT22;10657;51.276;6.390;2023-05-25T11:23:58;17.00;99.90
20998;DHT22;10657;51.276;6.390;2023-05-25T11:26:34;17.40;99.90
20998;DHT22;10657;51.276;6.390;2023-05-25T11:29:14;17.50;99.90
20998;DHT22;10657;51.276;6.390;2023-05-25T11:31:41;17.60;99.90
20998;DHT22;10657;51.276;6.390;2023-05-25T11:34:10;17.90;99.90
20998;DHT22;10657;51.276;6.390;2023-05-25T11:36:37;18.10;99.90
20998;DHT22;10657;51.276;6.390;2023-05-25T11:39:05;18.30;99.90
20998;DHT22;10657;51.276;6.390;2023-05-25T11:41:52;18.30;99.90
20998;DHT22;10657;51.276;6.390;2023-05-25T11:44:31;18.40;99.90
20998;DHT22;10657;51.276;6.390;2023-05-25T11:47:07;18.40;99.90
20998;DHT22;10657;51.276;6.390;2023-05-25T11:49:41;18.50;99.90
20998;DHT22;10657;51.276;6.390;2023-05-25T11:52:09;18.50;99.90
20998;DHT22;10657;51.276;6.390;2023-05-25T11:54:37;18.10;99.90
20998;DHT22;10657;51.276;6.390;2023-05-25T11:57:13;18.20;99.90
20998;DHT22;10657;51.276;6.390;2023-05-25T11:59:47;18.40;99.90
20998;DHT22;10657;51.276;6.390;2023-05-25T12:02:15;18.70;99.90
20998;DHT22;10657;51.276;6.390;2023-05-25T12:04:52;18.70;99.90
20998;DHT22;10657;51.276;6.390;2023-05-25T12:07:20;18.70;99.90
20998;DHT22;10657;51.276;6.390;2023-05-25T12:09:47;18.40;99.90
20998;DHT22;10657;51.276;6.390;2023-05-25T12:12:13;18.50;99.90
20998;DHT22;10657;51.276;6.390;2023-05-25T12:14:50;18.60;99.90
20998;DHT22;10657;51.276;6.390;2023-05-25T12:17:18;18.40;99.90
20998;DHT22;10657;51.276;6.390;2023-05-25T12:19:47;18.30;99.90
20998;DHT22;10657;51.276;6.390;2023-05-25T12:22:13;18.10;99.90
20998;DHT22;10657;51.276;6.390;2023-05-25T12:24:41;17.90;99.90
20998;DHT22;10657;51.276;6.390;2023-05-25T12:27:19;17.90;99.90
20998;DHT22;10657;51.276;6.390;2023-05-25T12:29:46;18.30;99.90
20998;DHT22;10657;51.276;6.390;2023-05-25T12:32:14;18.40;99.90
20998;DHT22;10657;51.276;6.390;2023-05-25T12:34:42;18.50;99.90
20998;DHT22;10657;51.276;6.390;2023-05-25T12:37:20;18.50;99.90
20998;DHT22;10657;51.276;6.390;2023-05-25T12:39:47;18.50;99.90
20998;DHT22;10657;51.276;6.390;2023-05-25T12:42:15;18.30;99.90
20998;DHT22;10657;51.276;6.390;2023-05-25T12:44:44;17.90;99.90
20998;DHT22;10657;51.276;6.390;2023-05-25T12:47:21;17.80;99.90
20998;DHT22;10657;51.276;6.390;2023-05-25T12:49:51;17.70;99.90
20998;DHT22;10657;51.276;6.390;2023-05-25T12:52:38;17.80;99.90
20998;DHT22;10657;51.276;6.390;2023-05-25T12:58:01;18.80;99.90
20998;DHT22;10657;51.276;6.390;2023-05-25T13:00:38;19.40;99.90
20998;DHT22;10657;51.276;6.390;2023-05-25T13:03:05;19.30;99.90
20998;DHT22;10657;51.276;6.390;2023-05-25T13:05:36;18.90;99.90
20998;DHT22;10657;51.276;6.390;2023-05-25T13:08:04;19.20;99.90
20998;DHT22;10657;51.276;6.390;2023-05-25T13:10:32;19.20;99.90
20998;DHT22;10657;51.276;6.390;2023-05-25T13:12:59;18.80;99.90
20998;DHT22;10657;51.276;6.390;2023-05-25T13:15:26;18.80;99.90
20998;DHT22;10657;51.276;6.390;2023-05-25T13:17:54;18.60;99.90
20998;DHT22;10657;51.276;6.390;2023-05-25T13:20:23;19.00;99.90
20998;DHT22;10657;51.276;6.390;2023-05-25T13:22:51;18.80;99.90
20998;DHT22;10657;51.276;6.390;2023-05-25T13:25:18;18.80;99.90
20998;DHT22;10657;51.276;6.390;2023-05-25T13:27:49;19.40;99.90
20998;DHT22;10657;51.276;6.390;2023-05-25T13:30:16;19.90;99.90
20998;DHT22;10657;51.276;6.390;2023-05-25T13:32:43;20.10;99.90
20998;DHT22;10657;51.276;6.390;2023-05-25T13:35:11;20.60;99.90
20998;DHT22;10657;51.276;6.390;2023-05-25T13:37:44;21.00;99.90
20998;DHT22;10657;51.276;6.390;2023-05-25T13:40:11;21.20;99.90
20998;DHT22;10657;51.276;6.390;2023-05-25T13:42:39;21.50;99.90
20998;DHT22;10657;51.276;6.390;2023-05-25T13:45:06;21.20;99.90
20998;DHT22;10657;51.276;6.390;2023-05-25T13:47:33;20.90;99.90
20998;DHT22;10657;51.276;6.390;2023-05-25T13:50:00;20.50;99.90
20998;DHT22;10657;51.276;6.390;2023-05-25T13:52:27;20.10;99.90
20998;DHT22;10657;51.276;6.390;2023-05-25T13:54:54;19.90;99.90
20998;DHT22;10657;51.276;6.390;2023-05-25T13:57:20;20.10;99.90
20998;DHT22;10657;51.276;6.390;2023-05-25T13:59:48;19.80;99.90
20998;DHT22;10657;51.276;6.390;2023-05-25T14:02:14;19.90;99.90
20998;DHT22;10657;51.276;6.390;2023-05-25T14:04:41;20.10;99.90
20998;DHT22;10657;51.276;6.390;2023-05-25T14:07:08;20.10;99.90
20998;DHT22;10657;51.276;6.390;2023-05-25T14:09:35;19.90;99.90
20998;DHT22;10657;51.276;6.390;2023-05-25T14:12:02;19.40;99.90
20998;DHT22;10657;51.276;6.390;2023-05-25T14:14:28;19.50;99.90
20998;DHT22;10657;51.276;6.390;2023-05-25T14:16:58;19.60;99.90
20998;DHT22;10657;51.276;6.390;2023-05-25T14:19:26;19.60;99.90
20998;DHT22;10657;51.276;6.390;2023-05-25T14:21:52;19.80;99.90
20998;DHT22;10657;51.276;6.390;2023-05-25T14:24:37;19.70;99.90
20998;DHT22;10657;51.276;6.390;2023-05-25T14:27:04;19.80;99.90
20998;DHT22;10657;51.276;6.390;2023-05-25T14:29:33;19.80;99.90
20998;DHT22;10657;51.276;6.390;2023-05-25T14:32:00;20.10;99.90
20998;DHT22;10657;51.276;6.390;2023-05-25T14:34:27;20.50;99.90
20998;DHT22;10657;51.276;6.390;2023-05-25T14:36:54;21.30;99.90
20998;DHT22;10657;51.276;6.390;2023-05-25T14:39:20;21.70;99.90
20998;DHT22;10657;51.276;6.390;2023-05-25T14:41:47;21.60;99.90
20998;DHT22;10657;51.276;6.390;2023-05-25T14:44:14;21.00;99.90
20998;DHT22;10657;51.276;6.390;2023-05-25T14:46:41;20.30;99.90
20998;DHT22;10657;51.276;6.390;2023-05-25T14:49:08;20.20;99.90
20998;DHT22;10657;51.276;6.390;2023-05-25T14:51:34;20.60;99.90
20998;DHT22;10657;51.276;6.390;2023-05-25T14:54:01;21.20;99.90
20998;DHT22;10657;51.276;6.390;2023-05-25T14:56:30;21.40;99.90
20998;DHT22;10657;51.276;6.390;2023-05-25T14:58:57;21.50;99.90
20998;DHT22;10657;51.276;6.390;2023-05-25T15:01:24;21.60;99.90
20998;DHT22;10657;51.276;6.390;2023-05-25T15:03:51;21.70;99.90
20998;DHT22;10657;51.276;6.390;2023-05-25T15:06:18;21.80;99.90
20998;DHT22;10657;51.276;6.390;2023-05-25T15:08:45;21.70;99.90
20998;DHT22;10657;51.276;6.390;2023-05-25T15:11:11;22.00;99.90
20998;DHT22;10657;51.276;6.390;2023-05-25T15:13:38;22.20;99.90
20998;DHT22;10657;51.276;6.390;2023-05-25T15:16:10;22.60;99.90
20998;DHT22;10657;51.276;6.390;2023-05-25T15:18:37;22.50;99.90
20998;DHT22;10657;51.276;6.390;2023-05-25T15:21:04;22.70;99.90
20998;DHT22;10657;51.276;6.390;2023-05-25T15:23:30;23.30;99.90
20998;DHT22;10657;51.276;6.390;2023-05-25T15:25:57;23.50;99.90
20998;DHT22;10657;51.276;6.390;2023-05-25T15:28:31;23.20;99.90
20998;DHT22;10657;51.276;6.390;2023-05-25T15:30:58;23.40;99.90
20998;DHT22;10657;51.276;6.390;2023-05-25T15:33:29;22.50;99.90
20998;DHT22;10657;51.276;6.390;2023-05-25T15:36:16;21.70;99.90
20998;DHT22;10657;51.276;6.390;2023-05-25T15:38:42;21.70;99.90
20998;DHT22;10657;51.276;6.390;2023-05-25T15:41:13;21.70;99.90
20998;DHT22;10657;51.276;6.390;2023-05-25T15:43:40;22.00;99.90
20998;DHT22;10657;51.276;6.390;2023-05-25T15:46:07;22.20;99.90
20998;DHT22;10657;51.276;6.390;2023-05-25T15:48:34;22.20;99.90
20998;DHT22;10657;51.276;6.390;2023-05-25T15:51:00;22.30;99.90
20998;DHT22;10657;51.276;6.390;2023-05-25T15:53:27;22.70;99.90
20998;DHT22;10657;51.276;6.390;2023-05-25T15:55:55;22.00;99.90
20998;DHT22;10657;51.276;6.390;2023-05-25T15:58:22;21.80;99.90
20998;DHT22;10657;51.276;6.390;2023-05-25T16:00:49;22.20;99.90